createdAt,value
2018-03-14T00:00:58.889Z,0
2018-03-14T00:01:58.596Z,0
2018-03-14T00:02:58.599Z,0
2018-03-14T00:03:59.498Z,0
2018-03-14T00:05:00.261Z,0
2018-03-14T00:05:59.263Z,0
2018-03-14T00:06:58.986Z,0
2018-03-14T00:07:58.729Z,0
2018-03-14T00:08:58.981Z,0
2018-03-14T00:09:58.399Z,0
2018-03-14T00:10:59.337Z,0
2018-03-14T00:11:59.660Z,0
2018-03-14T00:12:59.814Z,0
2018-03-14T00:13:59.068Z,0
2018-03-14T00:14:59.103Z,0
2018-03-14T00:15:58.484Z,0
2018-03-14T00:16:59.083Z,0
2018-03-14T00:17:58.806Z,0
2018-03-14T00:18:59.095Z,0
2018-03-14T00:19:59.502Z,0
2018-03-14T00:20:59.989Z,0
2018-03-14T00:21:59.195Z,0
2018-03-14T00:22:59.170Z,0
2018-03-14T00:23:58.575Z,0
2018-03-14T00:24:59.187Z,0
2018-03-14T00:25:58.924Z,0
2018-03-14T00:26:59.214Z,0
2018-03-14T00:28:00.265Z,0
2018-03-14T00:28:59.906Z,0
2018-03-14T00:29:59.606Z,0
2018-03-14T00:30:59.291Z,0
2018-03-14T00:31:59.292Z,0
2018-03-14T00:32:59.017Z,0
2018-03-14T00:33:59.314Z,0
2018-03-14T00:34:59.655Z,0
2018-03-14T00:35:59.549Z,0
2018-03-14T00:36:59.108Z,0
2018-03-14T00:37:58.761Z,0
2018-03-14T00:38:59.375Z,0
2018-03-14T00:39:59.101Z,0
2018-03-14T00:40:58.802Z,0
2018-03-14T00:41:59.125Z,0
2018-03-14T00:42:59.425Z,0
2018-03-14T00:44:01.227Z,0
2018-03-14T00:44:58.856Z,0
2018-03-14T00:45:59.204Z,0
2018-03-14T00:46:59.768Z,0
2018-03-14T00:47:59.538Z,0
2018-03-14T00:48:59.489Z,0
2018-03-14T00:49:59.828Z,0
2018-03-14T00:51:00.172Z,0
2018-03-14T00:51:59.942Z,0
2018-03-14T00:52:59.587Z,0
2018-03-14T00:53:59.580Z,0
2018-03-14T00:54:59.579Z,0
2018-03-14T00:55:59.910Z,0
2018-03-14T00:56:59.890Z,0
2018-03-14T00:57:59.008Z,0
2018-03-14T00:59:00.634Z,0
2018-03-14T01:00:01.248Z,0
2018-03-14T01:00:59.675Z,0
2018-03-14T01:01:59.678Z,0
2018-03-14T01:02:59.400Z,0
2018-03-14T01:04:00.011Z,0
2018-03-14T01:04:59.998Z,0
2018-03-14T01:05:59.426Z,0
2018-03-14T01:06:59.698Z,0
2018-03-14T01:07:59.790Z,0
2018-03-14T01:08:59.780Z,0
2018-03-14T01:09:59.178Z,0
2018-03-14T01:10:59.821Z,0
2018-03-14T01:11:59.491Z,0
2018-03-14T01:12:59.210Z,0
2018-03-14T01:13:59.511Z,0
2018-03-14T01:15:02.029Z,0
2018-03-14T01:15:59.846Z,0
2018-03-14T01:16:59.271Z,0
2018-03-14T01:17:59.562Z,0
2018-03-14T01:18:59.889Z,0
2018-03-14T01:19:59.905Z,0
2018-03-14T01:20:59.892Z,0
2018-03-14T01:22:00.576Z,0
2018-03-14T01:23:00.221Z,0
2018-03-14T01:23:59.636Z,0
2018-03-14T01:25:00.016Z,0
2018-03-14T01:25:59.673Z,0
2018-03-14T01:26:59.684Z,0
2018-03-14T01:28:00.003Z,0
2018-03-14T01:28:59.421Z,0
2018-03-14T01:29:59.737Z,0
2018-03-14T01:31:00.830Z,0
2018-03-14T01:31:59.164Z,0
2018-03-14T01:32:59.787Z,0
2018-03-14T01:34:00.080Z,0
2018-03-14T01:35:00.395Z,0
2018-03-14T01:36:00.418Z,0
2018-03-14T01:37:00.147Z,0
2018-03-14T01:38:01.311Z,0
2018-03-14T01:39:00.950Z,0
2018-03-14T01:40:00.448Z,0
2018-03-14T01:40:59.867Z,0
2018-03-14T01:41:59.885Z,0
2018-03-14T01:42:59.917Z,0
2018-03-14T01:44:00.543Z,0
2018-03-14T01:44:59.902Z,0
2018-03-14T01:46:00.889Z,0
2018-03-14T01:47:00.409Z,0
2018-03-14T01:48:00.288Z,0
2018-03-14T01:49:00.270Z,0
2018-03-14T01:49:59.695Z,0
2018-03-14T01:51:00.309Z,0
2018-03-14T01:52:00.604Z,0
2018-03-14T01:53:00.310Z,0
2018-03-14T01:54:01.431Z,0
2018-03-14T01:55:00.629Z,0
2018-03-14T01:56:00.357Z,0
2018-03-14T01:57:00.712Z,0
2018-03-14T01:58:00.442Z,0
2018-03-14T01:58:59.808Z,0
2018-03-14T02:00:00.724Z,0
2018-03-14T02:01:01.254Z,0
2018-03-14T02:02:01.304Z,0
2018-03-14T02:03:00.164Z,0
2018-03-14T02:04:00.475Z,0
2018-03-14T02:05:00.770Z,0
2018-03-14T02:06:00.199Z,0
2018-03-14T02:07:00.494Z,0
2018-03-14T02:07:59.925Z,0
2018-03-14T02:09:00.629Z,0
2018-03-14T02:10:00.775Z,0
2018-03-14T02:11:00.255Z,0
2018-03-14T02:12:00.579Z,0
2018-03-14T02:13:00.895Z,0
2018-03-14T02:14:00.626Z,0
2018-03-14T02:15:00.604Z,0
2018-03-14T02:16:00.613Z,0
2018-03-14T02:17:01.909Z,0
2018-03-14T02:18:00.657Z,0
2018-03-14T02:19:00.711Z,0
2018-03-14T02:20:00.699Z,0
2018-03-14T02:21:00.107Z,0
2018-03-14T02:22:00.420Z,0
2018-03-14T02:23:00.692Z,0
2018-03-14T02:24:01.542Z,0
2018-03-14T02:25:02.026Z,0
2018-03-14T02:26:01.041Z,0
2018-03-14T02:27:00.799Z,0
2018-03-14T02:28:00.799Z,0
2018-03-14T02:29:00.782Z,0
2018-03-14T02:30:00.504Z,0
2018-03-14T02:31:01.197Z,0
2018-03-14T02:32:02.286Z,0
2018-03-14T02:33:01.773Z,0
2018-03-14T02:34:00.590Z,0
2018-03-14T02:35:00.588Z,0
2018-03-14T02:36:00.270Z,0
2018-03-14T02:37:00.912Z,0
2018-03-14T02:38:00.305Z,0
2018-03-14T02:39:01.204Z,0
2018-03-14T02:40:01.337Z,0
2018-03-14T02:41:00.924Z,0
2018-03-14T02:42:00.982Z,0
2018-03-14T02:43:00.974Z,0
2018-03-14T02:44:00.989Z,0
2018-03-14T02:45:01.231Z,0
2018-03-14T02:46:00.397Z,0
2018-03-14T02:47:01.254Z,0
2018-03-14T02:48:01.002Z,0
2018-03-14T02:49:01.006Z,0
2018-03-14T02:50:00.447Z,0
2018-03-14T02:51:01.314Z,0
2018-03-14T02:52:01.329Z,0
2018-03-14T02:53:01.042Z,0
2018-03-14T02:54:01.066Z,0
2018-03-14T02:55:01.360Z,0
2018-03-14T02:56:01.386Z,0
2018-03-14T02:57:01.110Z,0
2018-03-14T02:58:01.122Z,0
2018-03-14T02:59:01.179Z,0
2018-03-14T03:00:00.859Z,0
2018-03-14T03:01:01.429Z,0
2018-03-14T03:02:00.877Z,0
2018-03-14T03:03:00.894Z,0
2018-03-14T03:04:01.245Z,0
2018-03-14T03:05:01.199Z,0
2018-03-14T03:06:01.222Z,0
2018-03-14T03:07:01.225Z,0
2018-03-14T03:08:01.526Z,0
2018-03-14T03:09:01.542Z,0
2018-03-14T03:10:00.707Z,0
2018-03-14T03:11:00.996Z,0
2018-03-14T03:12:01.310Z,0
2018-03-14T03:13:00.735Z,0
2018-03-14T03:14:01.662Z,0
2018-03-14T03:15:00.767Z,0
2018-03-14T03:16:01.627Z,0
2018-03-14T03:17:01.104Z,0
2018-03-14T03:18:01.371Z,0
2018-03-14T03:19:01.387Z,0
2018-03-14T03:20:01.398Z,0
2018-03-14T03:21:01.406Z,0
2018-03-14T03:22:00.851Z,0
2018-03-14T03:23:01.147Z,0
2018-03-14T03:24:01.187Z,0
2018-03-14T03:25:01.474Z,0
2018-03-14T03:26:01.463Z,0
2018-03-14T03:27:01.487Z,0
2018-03-14T03:28:01.492Z,0
2018-03-14T03:29:01.793Z,0
2018-03-14T03:30:01.528Z,0
2018-03-14T03:31:01.839Z,0
2018-03-14T03:32:01.550Z,0
2018-03-14T03:33:01.845Z,0
2018-03-14T03:34:01.866Z,0
2018-03-14T03:35:01.946Z,0
2018-03-14T03:36:01.624Z,0
2018-03-14T03:37:01.613Z,0
2018-03-14T03:38:01.909Z,0
2018-03-14T03:39:01.937Z,0
2018-03-14T03:40:01.653Z,0
2018-03-14T03:41:01.669Z,0
2018-03-14T03:42:01.414Z,0
2018-03-14T03:43:01.976Z,0
2018-03-14T03:44:01.426Z,0
2018-03-14T03:45:01.726Z,0
2018-03-14T03:46:02.010Z,0
2018-03-14T03:47:01.743Z,0
2018-03-14T03:48:01.755Z,0
2018-03-14T03:49:01.485Z,0
2018-03-14T03:50:02.121Z,0
2018-03-14T03:51:01.509Z,0
2018-03-14T03:52:01.518Z,0
2018-03-14T03:53:02.103Z,0
2018-03-14T03:54:01.823Z,0
2018-03-14T03:55:01.845Z,0
2018-03-14T03:56:02.139Z,0
2018-03-14T03:57:02.152Z,0
2018-03-14T03:58:01.594Z,0
2018-03-14T03:59:02.186Z,0
2018-03-14T04:00:01.923Z,0
2018-03-14T04:01:01.928Z,0
2018-03-14T04:02:01.971Z,0
2018-03-14T04:03:01.662Z,0
2018-03-14T04:04:01.957Z,0
2018-03-14T04:05:02.254Z,0
2018-03-14T04:06:01.977Z,0
2018-03-14T04:07:01.712Z,0
2018-03-14T04:08:02.292Z,0
2018-03-14T04:09:02.025Z,0
2018-03-14T04:10:01.757Z,0
2018-03-14T04:11:02.331Z,0
2018-03-14T04:12:02.344Z,0
2018-03-14T04:13:02.364Z,0
2018-03-14T04:14:01.803Z,0
2018-03-14T04:15:02.172Z,0
2018-03-14T04:16:01.836Z,0
2018-03-14T04:17:02.404Z,0
2018-03-14T04:18:01.880Z,0
2018-03-14T04:19:01.882Z,0
2018-03-14T04:20:01.903Z,0
2018-03-14T04:21:02.179Z,0
2018-03-14T04:22:02.195Z,0
2018-03-14T04:23:01.931Z,0
2018-03-14T04:24:02.619Z,0
2018-03-14T04:25:02.510Z,0
2018-03-14T04:26:02.240Z,0
2018-03-14T04:27:01.972Z,0
2018-03-14T04:28:02.349Z,0
2018-03-14T04:29:01.716Z,0
2018-03-14T04:30:02.293Z,0
2018-03-14T04:31:02.303Z,0
2018-03-14T04:32:01.753Z,0
2018-03-14T04:33:01.490Z,0
2018-03-14T04:34:02.639Z,0
2018-03-14T04:35:02.638Z,0
2018-03-14T04:36:02.428Z,0
2018-03-14T04:37:02.379Z,0
2018-03-14T04:38:02.685Z,0
2018-03-14T04:39:02.141Z,0
2018-03-14T04:40:02.698Z,0
2018-03-14T04:41:02.434Z,0
2018-03-14T04:42:02.164Z,0
2018-03-14T04:43:01.891Z,0
2018-03-14T04:44:02.753Z,0
2018-03-14T04:45:02.497Z,0
2018-03-14T04:46:01.663Z,0
2018-03-14T04:47:02.519Z,0
2018-03-14T04:48:02.539Z,0
2018-03-14T04:49:02.538Z,0
2018-03-14T04:50:02.282Z,0
2018-03-14T04:51:02.897Z,0
2018-03-14T04:52:02.852Z,0
2018-03-14T04:53:02.875Z,0
2018-03-14T04:54:02.313Z,0
2018-03-14T04:55:02.621Z,0
2018-03-14T04:56:02.920Z,0
2018-03-14T04:57:02.640Z,0
2018-03-14T04:58:02.956Z,0
2018-03-14T04:59:02.379Z,0
2018-03-14T05:00:02.966Z,0
2018-03-14T05:01:02.410Z,0
2018-03-14T05:02:02.727Z,0
2018-03-14T05:03:02.433Z,0
2018-03-14T05:04:02.734Z,0
2018-03-14T05:05:02.466Z,0
2018-03-14T05:06:02.933Z,0
2018-03-14T05:07:02.805Z,0
2018-03-14T05:08:02.503Z,0
2018-03-14T05:09:03.074Z,0
2018-03-14T05:10:03.091Z,0
2018-03-14T05:11:02.546Z,0
2018-03-14T05:12:02.856Z,0
2018-03-14T05:13:02.561Z,0
2018-03-14T05:14:02.866Z,0
2018-03-14T05:15:02.308Z,0
2018-03-14T05:16:03.169Z,0
2018-03-14T05:17:03.177Z,0
2018-03-14T05:18:02.631Z,0
2018-03-14T05:19:03.408Z,0
2018-03-14T05:20:02.666Z,0
2018-03-14T05:21:02.946Z,0
2018-03-14T05:22:02.991Z,0
2018-03-14T05:23:02.984Z,0
2018-03-14T05:24:03.000Z,0
2018-03-14T05:25:03.285Z,0
2018-03-14T05:26:03.375Z,0
2018-03-14T05:27:03.304Z,0
2018-03-14T05:28:02.777Z,0
2018-03-14T05:29:03.331Z,0
2018-03-14T05:30:03.072Z,0
2018-03-14T05:31:02.511Z,0
2018-03-14T05:32:02.805Z,0
2018-03-14T05:33:02.264Z,0
2018-03-14T05:34:03.397Z,0
2018-03-14T05:35:03.125Z,0
2018-03-14T05:36:03.142Z,0
2018-03-14T05:37:03.154Z,0
2018-03-14T05:38:03.176Z,0
2018-03-14T05:39:03.185Z,0
2018-03-14T05:40:02.932Z,0
2018-03-14T05:41:02.918Z,0
2018-03-14T05:42:03.261Z,0
2018-03-14T05:43:03.437Z,0
2018-03-14T05:44:03.552Z,0
2018-03-14T05:45:03.276Z,0
2018-03-14T05:46:03.294Z,0
2018-03-14T05:47:03.290Z,0
2018-03-14T05:48:03.014Z,0
2018-03-14T05:49:03.310Z,0
2018-03-14T05:50:03.052Z,0
2018-03-14T05:51:03.334Z,0
2018-03-14T05:52:03.348Z,0
2018-03-14T05:53:03.076Z,0
2018-03-14T05:54:03.091Z,0
2018-03-14T05:55:03.380Z,0
2018-03-14T05:56:03.694Z,0
2018-03-14T05:57:03.411Z,0
2018-03-14T05:58:02.868Z,0
2018-03-14T05:59:03.445Z,0
2018-03-14T06:00:03.189Z,0
2018-03-14T06:01:03.463Z,0
2018-03-14T06:02:03.763Z,0
2018-03-14T06:03:03.514Z,0
2018-03-14T06:04:03.515Z,0
2018-03-14T06:05:03.522Z,0
2018-03-14T06:06:03.577Z,0
2018-03-14T06:07:03.039Z,0
2018-03-14T06:08:03.546Z,0
2018-03-14T06:09:03.283Z,0
2018-03-14T06:10:03.592Z,0
2018-03-14T06:11:03.312Z,0
2018-03-14T06:12:03.893Z,0
2018-03-14T06:13:03.333Z,0
2018-03-14T06:14:03.632Z,0
2018-03-14T06:15:03.639Z,0
2018-03-14T06:16:03.373Z,0
2018-03-14T06:17:04.039Z,0
2018-03-14T06:18:03.404Z,0
2018-03-14T06:19:03.694Z,0
2018-03-14T06:20:03.722Z,0
2018-03-14T06:21:03.724Z,0
2018-03-14T06:22:03.460Z,0
2018-03-14T06:23:03.758Z,0
2018-03-14T06:24:03.476Z,0
2018-03-14T06:25:03.517Z,0
2018-03-14T06:26:04.062Z,5
2018-03-14T06:27:04.094Z,5
2018-03-14T06:28:03.816Z,0
2018-03-14T06:29:03.827Z,0
2018-03-14T06:30:04.208Z,5
2018-03-14T06:31:03.846Z,5
2018-03-14T06:32:03.918Z,0
2018-03-14T06:33:04.154Z,0
2018-03-14T06:34:03.625Z,5
2018-03-14T06:35:03.905Z,5
2018-03-14T06:36:03.381Z,5
2018-03-14T06:37:03.972Z,5
2018-03-14T06:38:04.231Z,5
2018-03-14T06:39:03.716Z,5
2018-03-14T06:40:03.396Z,5
2018-03-14T06:41:03.982Z,5
2018-03-14T06:42:04.056Z,5
2018-03-14T06:43:03.435Z,5
2018-03-14T06:44:04.014Z,5
2018-03-14T06:45:04.044Z,5
2018-03-14T06:46:04.085Z,5
2018-03-14T06:47:04.105Z,5
2018-03-14T06:48:03.788Z,5
2018-03-14T06:49:03.515Z,5
2018-03-14T06:50:03.272Z,5
2018-03-14T06:51:04.456Z,5
2018-03-14T06:52:04.120Z,5
2018-03-14T06:53:04.131Z,5
2018-03-14T06:54:03.859Z,5
2018-03-14T06:55:03.879Z,5
2018-03-14T06:56:04.183Z,5
2018-03-14T06:57:03.617Z,5
2018-03-14T06:58:03.652Z,5
2018-03-14T06:59:04.627Z,5
2018-03-14T07:00:03.933Z,5
2018-03-14T07:01:04.527Z,5
2018-03-14T07:02:04.088Z,5
2018-03-14T07:03:04.269Z,5
2018-03-14T07:04:04.565Z,10
2018-03-14T07:05:04.350Z,10
2018-03-14T07:06:04.307Z,10
2018-03-14T07:07:04.079Z,10
2018-03-14T07:08:04.047Z,10
2018-03-14T07:09:04.062Z,10
2018-03-14T07:10:03.793Z,10
2018-03-14T07:11:04.110Z,10
2018-03-14T07:12:03.859Z,10
2018-03-14T07:13:04.111Z,10
2018-03-14T07:14:04.126Z,10
2018-03-14T07:15:04.424Z,10
2018-03-14T07:16:04.725Z,10
2018-03-14T07:17:04.458Z,10
2018-03-14T07:18:04.514Z,10
2018-03-14T07:19:04.477Z,10
2018-03-14T07:20:04.201Z,10
2018-03-14T07:21:04.801Z,10
2018-03-14T07:22:04.280Z,10
2018-03-14T07:23:04.530Z,10
2018-03-14T07:24:04.534Z,10
2018-03-14T07:25:04.272Z,10
2018-03-14T07:26:04.847Z,10
2018-03-14T07:27:04.861Z,10
2018-03-14T07:28:04.590Z,10
2018-03-14T07:29:04.634Z,10
2018-03-14T07:30:04.619Z,10
2018-03-14T07:31:04.645Z,10
2018-03-14T07:32:04.080Z,10
2018-03-14T07:33:04.711Z,10
2018-03-14T07:34:04.099Z,10
2018-03-14T07:35:05.004Z,10
2018-03-14T07:36:04.976Z,10
2018-03-14T07:37:04.428Z,5
2018-03-14T07:38:05.049Z,5
2018-03-14T07:39:03.881Z,10
2018-03-14T07:40:04.749Z,10
2018-03-14T07:41:04.759Z,10
2018-03-14T07:42:04.491Z,10
2018-03-14T07:43:04.786Z,10
2018-03-14T07:44:04.797Z,10
2018-03-14T07:45:04.814Z,10
2018-03-14T07:46:04.261Z,10
2018-03-14T07:47:05.123Z,10
2018-03-14T07:48:04.859Z,10
2018-03-14T07:49:04.953Z,10
2018-03-14T07:50:04.917Z,15
2018-03-14T07:51:04.615Z,15
2018-03-14T07:52:04.905Z,15
2018-03-14T07:53:04.695Z,15
2018-03-14T07:54:04.941Z,15
2018-03-14T07:55:04.665Z,10
2018-03-14T07:56:04.970Z,10
2018-03-14T07:57:05.269Z,10
2018-03-14T07:58:04.703Z,10
2018-03-14T07:59:05.084Z,10
2018-03-14T08:00:05.297Z,10
2018-03-14T08:01:04.768Z,10
2018-03-14T08:02:05.039Z,10
2018-03-14T08:03:05.389Z,10
2018-03-14T08:04:04.804Z,10
2018-03-14T08:05:05.372Z,5
2018-03-14T08:06:05.377Z,5
2018-03-14T08:07:04.841Z,5
2018-03-14T08:08:04.884Z,5
2018-03-14T08:09:04.566Z,5
2018-03-14T08:10:04.577Z,10
2018-03-14T08:11:04.891Z,10
2018-03-14T08:12:05.183Z,5
2018-03-14T08:13:05.185Z,5
2018-03-14T08:14:05.050Z,5
2018-03-14T08:15:05.509Z,5
2018-03-14T08:16:05.262Z,5
2018-03-14T08:17:05.161Z,5
2018-03-14T08:18:05.283Z,5
2018-03-14T08:19:04.982Z,5
2018-03-14T08:20:05.008Z,5
2018-03-14T08:21:05.298Z,0
2018-03-14T08:22:05.634Z,0
2018-03-14T08:23:05.326Z,0
2018-03-14T08:24:05.334Z,5
2018-03-14T08:25:05.631Z,10
2018-03-14T08:26:05.673Z,20
2018-03-14T08:27:05.661Z,20
2018-03-14T08:28:05.412Z,20
2018-03-14T08:29:05.122Z,20
2018-03-14T08:30:05.383Z,20
2018-03-14T08:31:05.442Z,15
2018-03-14T08:32:05.162Z,15
2018-03-14T08:33:05.224Z,15
2018-03-14T08:34:05.503Z,15
2018-03-14T08:35:05.206Z,15
2018-03-14T08:36:04.957Z,15
2018-03-14T08:37:05.518Z,10
2018-03-14T08:38:05.534Z,15
2018-03-14T08:39:05.536Z,15
2018-03-14T08:40:05.269Z,10
2018-03-14T08:41:05.559Z,10
2018-03-14T08:42:05.597Z,10
2018-03-14T08:43:05.591Z,15
2018-03-14T08:44:05.336Z,10
2018-03-14T08:45:05.344Z,10
2018-03-14T08:46:06.216Z,10
2018-03-14T08:47:05.360Z,10
2018-03-14T08:48:05.679Z,10
2018-03-14T08:49:05.667Z,10
2018-03-14T08:50:05.415Z,10
2018-03-14T08:51:05.986Z,10
2018-03-14T08:52:05.725Z,20
2018-03-14T08:53:06.064Z,20
2018-03-14T08:54:05.737Z,20
2018-03-14T08:55:05.753Z,15
2018-03-14T08:56:06.061Z,15
2018-03-14T08:57:05.777Z,20
2018-03-14T08:58:05.803Z,25
2018-03-14T08:59:05.809Z,25
2018-03-14T09:00:05.826Z,20
2018-03-14T09:01:05.268Z,25
2018-03-14T09:02:05.845Z,20
2018-03-14T09:03:05.580Z,20
2018-03-14T09:04:05.341Z,20
2018-03-14T09:05:05.895Z,20
2018-03-14T09:06:05.898Z,20
2018-03-14T09:07:06.198Z,25
2018-03-14T09:08:05.926Z,25
2018-03-14T09:09:05.946Z,25
2018-03-14T09:10:05.693Z,25
2018-03-14T09:11:05.685Z,25
2018-03-14T09:12:05.698Z,25
2018-03-14T09:13:06.000Z,25
2018-03-14T09:14:05.736Z,30
2018-03-14T09:15:06.037Z,30
2018-03-14T09:16:06.357Z,30
2018-03-14T09:17:06.056Z,30
2018-03-14T09:18:05.785Z,30
2018-03-14T09:19:06.088Z,30
2018-03-14T09:20:05.815Z,30
2018-03-14T09:21:06.123Z,30
2018-03-14T09:22:05.842Z,30
2018-03-14T09:23:06.129Z,30
2018-03-14T09:24:06.148Z,30
2018-03-14T09:25:06.198Z,30
2018-03-14T09:26:06.192Z,30
2018-03-14T09:27:06.195Z,25
2018-03-14T09:28:06.261Z,25
2018-03-14T09:29:05.649Z,25
2018-03-14T09:30:06.237Z,25
2018-03-14T09:31:05.963Z,25
2018-03-14T09:32:06.546Z,25
2018-03-14T09:33:05.990Z,25
2018-03-14T09:34:06.631Z,30
2018-03-14T09:35:06.309Z,25
2018-03-14T09:36:06.609Z,25
2018-03-14T09:37:06.054Z,25
2018-03-14T09:38:06.065Z,25
2018-03-14T09:39:06.655Z,25
2018-03-14T09:40:06.090Z,20
2018-03-14T09:41:06.101Z,20
2018-03-14T09:42:06.145Z,20
2018-03-14T09:43:06.419Z,20
2018-03-14T09:44:06.208Z,25
2018-03-14T09:45:06.445Z,25
2018-03-14T09:46:06.297Z,25
2018-03-14T09:47:06.480Z,25
2018-03-14T09:48:06.491Z,25
2018-03-14T09:49:06.268Z,25
2018-03-14T09:50:06.512Z,30
2018-03-14T09:51:06.247Z,35
2018-03-14T09:52:06.545Z,25
2018-03-14T09:53:06.557Z,15
2018-03-14T09:54:06.595Z,10
2018-03-14T09:55:06.589Z,15
2018-03-14T09:56:06.324Z,25
2018-03-14T09:57:06.383Z,25
2018-03-14T09:58:06.635Z,25
2018-03-14T09:59:06.644Z,30
2018-03-14T10:00:06.375Z,35
2018-03-14T10:01:06.670Z,30
2018-03-14T10:02:06.680Z,25
2018-03-14T10:03:06.706Z,30
2018-03-14T10:04:06.201Z,30
2018-03-14T10:05:06.505Z,30
2018-03-14T10:06:06.753Z,35
2018-03-14T10:07:06.474Z,35
2018-03-14T10:08:06.488Z,30
2018-03-14T10:09:06.564Z,30
2018-03-14T10:10:07.085Z,30
2018-03-14T10:11:06.823Z,30
2018-03-14T10:12:07.110Z,25
2018-03-14T10:13:06.560Z,20
2018-03-14T10:14:07.254Z,20
2018-03-14T10:15:07.156Z,20
2018-03-14T10:16:06.358Z,20
2018-03-14T10:17:07.247Z,20
2018-03-14T10:18:07.274Z,20
2018-03-14T10:19:06.970Z,20
2018-03-14T10:20:06.942Z,20
2018-03-14T10:21:06.672Z,20
2018-03-14T10:22:06.973Z,20
2018-03-14T10:23:07.285Z,15
2018-03-14T10:24:06.485Z,10
2018-03-14T10:25:06.729Z,10
2018-03-14T10:26:07.142Z,15
2018-03-14T10:27:06.765Z,15
2018-03-14T10:28:07.083Z,15
2018-03-14T10:29:07.190Z,15
2018-03-14T10:30:06.805Z,10
2018-03-14T10:31:06.886Z,10
2018-03-14T10:32:06.838Z,5
2018-03-14T10:33:06.851Z,5
2018-03-14T10:34:07.141Z,5
2018-03-14T10:35:06.873Z,10
2018-03-14T10:36:07.181Z,5
2018-03-14T10:37:06.897Z,10
2018-03-14T10:38:07.210Z,10
2018-03-14T10:39:07.068Z,10
2018-03-14T10:40:06.946Z,10
2018-03-14T10:41:06.721Z,10
2018-03-14T10:42:07.605Z,10
2018-03-14T10:43:07.274Z,10
2018-03-14T10:44:07.284Z,10
2018-03-14T10:45:07.014Z,10
2018-03-14T10:46:07.030Z,15
2018-03-14T10:47:07.050Z,15
2018-03-14T10:48:07.011Z,15
2018-03-14T10:49:07.398Z,15
2018-03-14T10:50:07.398Z,15
2018-03-14T10:51:07.671Z,15
2018-03-14T10:52:07.399Z,15
2018-03-14T10:53:07.133Z,15
2018-03-14T10:54:07.440Z,15
2018-03-14T10:55:07.448Z,15
2018-03-14T10:56:07.248Z,15
2018-03-14T10:57:07.474Z,15
2018-03-14T10:58:07.535Z,20
2018-03-14T10:59:07.260Z,15
2018-03-14T11:00:07.814Z,15
2018-03-14T11:01:07.533Z,15
2018-03-14T11:02:07.566Z,15
2018-03-14T11:03:07.568Z,15
2018-03-14T11:04:07.306Z,15
2018-03-14T11:05:07.358Z,15
2018-03-14T11:06:07.034Z,15
2018-03-14T11:07:07.617Z,20
2018-03-14T11:08:07.626Z,20
2018-03-14T11:09:07.650Z,25
2018-03-14T11:10:07.718Z,30
2018-03-14T11:11:07.402Z,30
2018-03-14T11:12:07.414Z,30
2018-03-14T11:13:07.695Z,30
2018-03-14T11:14:08.002Z,30
2018-03-14T11:15:07.783Z,30
2018-03-14T11:16:07.455Z,25
2018-03-14T11:17:07.761Z,25
2018-03-14T11:18:08.230Z,25
2018-03-14T11:19:07.789Z,30
2018-03-14T11:20:07.886Z,35
2018-03-14T11:21:07.819Z,40
2018-03-14T11:22:07.558Z,40
2018-03-14T11:23:07.557Z,45
2018-03-14T11:24:07.861Z,45
2018-03-14T11:25:07.882Z,45
2018-03-14T11:26:08.186Z,50
2018-03-14T11:27:08.184Z,50
2018-03-14T11:28:08.226Z,50
2018-03-14T11:29:07.936Z,50
2018-03-14T11:30:07.936Z,50
2018-03-14T11:31:07.962Z,55
2018-03-14T11:32:07.409Z,55
2018-03-14T11:33:08.277Z,55
2018-03-14T11:34:08.034Z,55
2018-03-14T11:35:08.300Z,60
2018-03-14T11:36:08.324Z,60
2018-03-14T11:37:07.769Z,55
2018-03-14T11:38:08.357Z,55
2018-03-14T11:39:08.364Z,50
2018-03-14T11:40:07.576Z,50
2018-03-14T11:41:08.033Z,50
2018-03-14T11:42:07.849Z,45
2018-03-14T11:43:08.168Z,35
2018-03-14T11:44:07.585Z,30
2018-03-14T11:45:07.878Z,25
2018-03-14T11:46:07.901Z,20
2018-03-14T11:47:07.644Z,20
2018-03-14T11:48:07.655Z,20
2018-03-14T11:49:07.937Z,20
2018-03-14T11:50:08.580Z,15
2018-03-14T11:51:07.685Z,15
2018-03-14T11:52:08.550Z,15
2018-03-14T11:53:08.295Z,20
2018-03-14T11:54:08.018Z,30
2018-03-14T11:55:08.368Z,45
2018-03-14T11:56:08.072Z,45
2018-03-14T11:57:08.341Z,45
2018-03-14T11:58:08.079Z,45
2018-03-14T11:59:08.369Z,45
2018-03-14T12:00:07.869Z,45
2018-03-14T12:01:08.401Z,45
2018-03-14T12:02:08.731Z,45
2018-03-14T12:03:08.727Z,45
2018-03-14T12:04:08.206Z,45
2018-03-14T12:05:08.461Z,45
2018-03-14T12:06:08.486Z,45
2018-03-14T12:07:08.215Z,45
2018-03-14T12:08:08.226Z,45
2018-03-14T12:09:08.249Z,40
2018-03-14T12:10:08.280Z,40
2018-03-14T12:11:08.624Z,40
2018-03-14T12:12:08.306Z,40
2018-03-14T12:13:08.591Z,40
2018-03-14T12:14:08.894Z,35
2018-03-14T12:15:08.620Z,30
2018-03-14T12:16:08.354Z,30
2018-03-14T12:17:08.647Z,35
2018-03-14T12:18:08.103Z,35
2018-03-14T12:19:08.967Z,30
2018-03-14T12:20:08.694Z,25
2018-03-14T12:21:08.139Z,30
2018-03-14T12:22:08.438Z,30
2018-03-14T12:23:08.733Z,20
2018-03-14T12:24:08.468Z,20
2018-03-14T12:25:08.892Z,20
2018-03-14T12:26:09.075Z,20
2018-03-14T12:27:08.515Z,20
2018-03-14T12:28:08.531Z,20
2018-03-14T12:29:09.113Z,20
2018-03-14T12:30:08.931Z,20
2018-03-14T12:31:08.293Z,20
2018-03-14T12:32:08.593Z,15
2018-03-14T12:33:09.264Z,15
2018-03-14T12:34:09.301Z,20
2018-03-14T12:35:08.642Z,20
2018-03-14T12:36:08.418Z,15
2018-03-14T12:37:09.117Z,20
2018-03-14T12:38:08.681Z,20
2018-03-14T12:39:08.701Z,15
2018-03-14T12:40:08.801Z,15
2018-03-14T12:41:08.774Z,15
2018-03-14T12:42:08.462Z,15
2018-03-14T12:43:09.041Z,15
2018-03-14T12:44:08.781Z,20
2018-03-14T12:45:08.799Z,25
2018-03-14T12:46:08.828Z,35
2018-03-14T12:47:09.102Z,40
2018-03-14T12:48:09.683Z,45
2018-03-14T12:49:09.133Z,45
2018-03-14T12:50:09.439Z,45
2018-03-14T12:51:09.220Z,45
2018-03-14T12:52:09.465Z,40
2018-03-14T12:53:08.911Z,40
2018-03-14T12:54:09.370Z,40
2018-03-14T12:55:09.223Z,40
2018-03-14T12:56:09.364Z,40
2018-03-14T12:57:08.701Z,40
2018-03-14T12:58:08.702Z,40
2018-03-14T12:59:09.278Z,40
2018-03-14T13:00:09.583Z,45
2018-03-14T13:01:09.029Z,45
2018-03-14T13:02:08.764Z,40
2018-03-14T13:03:09.674Z,40
2018-03-14T13:04:09.371Z,40
2018-03-14T13:05:09.389Z,40
2018-03-14T13:06:09.704Z,40
2018-03-14T13:07:09.492Z,40
2018-03-14T13:08:09.431Z,45
2018-03-14T13:09:09.478Z,45
2018-03-14T13:10:09.454Z,45
2018-03-14T13:11:09.479Z,45
2018-03-14T13:12:09.760Z,45
2018-03-14T13:13:09.214Z,45
2018-03-14T13:14:09.520Z,40
2018-03-14T13:15:09.850Z,40
2018-03-14T13:16:09.261Z,40
2018-03-14T13:17:09.592Z,35
2018-03-14T13:18:09.375Z,30
2018-03-14T13:19:09.616Z,25
2018-03-14T13:20:09.897Z,25
2018-03-14T13:21:09.133Z,20
2018-03-14T13:22:09.358Z,20
2018-03-14T13:23:09.950Z,30
2018-03-14T13:24:09.678Z,30
2018-03-14T13:25:09.404Z,20
2018-03-14T13:26:09.714Z,15
2018-03-14T13:27:09.726Z,10
2018-03-14T13:28:10.235Z,15
2018-03-14T13:29:09.754Z,15
2018-03-14T13:30:09.484Z,15
2018-03-14T13:31:09.827Z,20
2018-03-14T13:32:09.808Z,25
2018-03-14T13:33:09.531Z,25
2018-03-14T13:34:09.823Z,30
2018-03-14T13:35:09.842Z,35
2018-03-14T13:36:09.863Z,35
2018-03-14T13:37:09.871Z,30
2018-03-14T13:38:10.180Z,25
2018-03-14T13:39:09.900Z,30
2018-03-14T13:40:10.048Z,30
2018-03-14T13:41:09.933Z,30
2018-03-14T13:42:09.947Z,30
2018-03-14T13:43:09.688Z,30
2018-03-14T13:44:09.979Z,30
2018-03-14T13:45:09.996Z,35
2018-03-14T13:46:09.752Z,35
2018-03-14T13:47:10.042Z,35
2018-03-14T13:48:10.052Z,35
2018-03-14T13:49:10.055Z,30
2018-03-14T13:50:09.510Z,35
2018-03-14T13:51:09.882Z,35
2018-03-14T13:52:10.420Z,40
2018-03-14T13:53:10.123Z,40
2018-03-14T13:54:09.580Z,35
2018-03-14T13:55:10.162Z,35
2018-03-14T13:56:09.652Z,35
2018-03-14T13:57:09.901Z,35
2018-03-14T13:58:10.479Z,35
2018-03-14T13:59:10.297Z,35
2018-03-14T14:00:10.254Z,35
2018-03-14T14:01:09.678Z,35
2018-03-14T14:02:10.266Z,35
2018-03-14T14:03:10.277Z,35
2018-03-14T14:04:10.317Z,30
2018-03-14T14:05:10.023Z,35
2018-03-14T14:06:10.110Z,30
2018-03-14T14:07:10.341Z,30
2018-03-14T14:08:10.364Z,25
2018-03-14T14:09:09.827Z,25
2018-03-14T14:10:10.430Z,20
2018-03-14T14:11:10.744Z,20
2018-03-14T14:12:10.152Z,20
2018-03-14T14:13:10.206Z,20
2018-03-14T14:14:10.738Z,20
2018-03-14T14:15:10.192Z,20
2018-03-14T14:16:10.504Z,20
2018-03-14T14:17:09.926Z,15
2018-03-14T14:18:10.228Z,15
2018-03-14T14:19:10.534Z,15
2018-03-14T14:20:10.285Z,15
2018-03-14T14:21:10.557Z,15
2018-03-14T14:22:10.302Z,15
2018-03-14T14:23:10.306Z,15
2018-03-14T14:24:10.039Z,15
2018-03-14T14:25:10.662Z,15
2018-03-14T14:26:10.379Z,15
2018-03-14T14:27:10.084Z,15
2018-03-14T14:28:10.397Z,15
2018-03-14T14:29:10.685Z,10
2018-03-14T14:30:10.416Z,10
2018-03-14T14:31:10.150Z,10
2018-03-14T14:32:09.882Z,10